Time;durP1;ratioP1;P1;durP2;ratioP2;P2;SDS_P1;SDS_P2;PMS_P1;PMS_P2;Temp;Humidity;BMP_temperature;BMP_pressure;BME280_temperature;BME280_humidity;BME280_pressure;Samples;Min_cycle;Max_cycle;Signal;HPM_P1;HPM_P2
2023/03/30 00:00:17;;;;;;;0.00;0.00;;;11.80;97.70;;;;;;5052355;28;20049;-83
2023/03/30 00:02:48;;;;;;;0.20;0.10;;;11.90;97.20;;;;;;5036642;28;20057;-83
2023/03/30 00:05:14;;;;;;;0.00;0.00;;;11.90;97.00;;;;;;5053238;28;20124;-83
2023/03/30 00:07:41;;;;;;;0.00;0.00;;;11.90;96.60;;;;;;5052373;28;20045;-83
2023/03/30 00:10:09;;;;;;;0.00;0.00;;;12.00;96.20;;;;;;5035621;28;20045;-83
2023/03/30 00:12:35;;;;;;;0.10;0.10;;;12.00;95.60;;;;;;5052049;28;20048;-83
2023/03/30 00:15:01;;;;;;;0.05;0.00;;;12.00;95.10;;;;;;5052096;28;20053;-83
2023/03/30 00:17:27;;;;;;;9.65;0.75;;;12.10;94.40;;;;;;5051991;28;20056;-84
2023/03/30 00:19:52;;;;;;;0.80;0.17;;;12.10;93.70;;;;;;5035664;28;20060;-83
2023/03/30 00:22:18;;;;;;;0.00;0.00;;;12.10;93.70;;;;;;5035538;28;20057;-84
2023/03/30 00:24:44;;;;;;;0.00;0.00;;;12.10;93.00;;;;;;5019142;28;20140;-84
2023/03/30 00:27:10;;;;;;;0.00;0.00;;;12.10;92.80;;;;;;5055545;28;20052;-84
2023/03/30 00:29:35;;;;;;;0.08;0.08;;;12.20;92.30;;;;;;5039241;28;20041;-84
2023/03/30 00:32:02;;;;;;;0.00;0.00;;;12.20;91.70;;;;;;5056105;28;20041;-84
2023/03/30 00:34:28;;;;;;;1.20;0.43;;;12.20;91.30;;;;;;5056851;28;20124;-84
2023/03/30 00:36:55;;;;;;;0.00;0.00;;;12.20;90.30;;;;;;5056486;28;20742;-84
2023/03/30 00:39:21;;;;;;;0.08;0.00;;;12.20;90.20;;;;;;5056028;28;20094;-83
2023/03/30 00:41:48;;;;;;;0.05;0.00;;;12.20;90.00;;;;;;5055359;28;20056;-84
2023/03/30 00:44:51;;;;;;;0.65;0.00;;;12.30;86.50;;;;;;5055319;28;20072;-84
2023/03/30 00:47:18;;;;;;;4.20;0.15;;;12.30;85.70;;;;;;5055647;28;20052;-85
2023/03/30 00:49:44;;;;;;;0.00;0.00;;;12.20;82.30;;;;;;5038606;28;20077;-84
2023/03/30 00:52:11;;;;;;;0.10;0.10;;;12.20;82.20;;;;;;5039246;28;20049;-84
2023/03/30 00:54:38;;;;;;;0.70;0.00;;;12.30;80.60;;;;;;5056392;28;20393;-84
2023/03/30 00:57:06;;;;;;;0.00;0.00;;;12.30;79.50;;;;;;5056033;28;20049;-84
2023/03/30 00:59:32;;;;;;;0.00;0.00;;;12.20;78.20;;;;;;5039273;28;20049;-84
2023/03/30 01:01:59;;;;;;;0.00;0.00;;;12.30;78.20;;;;;;5056624;28;20041;-84
2023/03/30 01:04:24;;;;;;;0.00;0.00;;;12.30;76.40;;;;;;5022618;28;20139;-84
2023/03/30 01:06:51;;;;;;;0.13;0.00;;;12.30;75.00;;;;;;5058848;28;20144;-84
2023/03/30 01:09:17;;;;;;;0.00;0.00;;;12.30;74.50;;;;;;5058517;28;20107;-84
2023/03/30 01:11:44;;;;;;;0.40;0.10;;;12.30;75.10;;;;;;5055407;28;20084;-84
2023/03/30 01:14:11;;;;;;;2.38;0.10;;;12.30;73.40;;;;;;5038637;28;20079;-84
2023/03/30 01:17:05;;;;;;;0.00;0.00;;;12.30;71.50;;;;;;5038630;28;20136;-84
2023/03/30 01:19:33;;;;;;;0.00;0.00;;;12.30;69.30;;;;;;5039016;28;20150;-84
2023/03/30 01:22:17;;;;;;;0.00;0.00;;;12.30;68.10;;;;;;5039271;28;20053;-84
2023/03/30 01:25:01;;;;;;;1.02;0.30;;;12.30;69.40;;;;;;5055376;28;20607;-84
2023/03/30 01:28:03;;;;;;;0.00;0.00;;;12.30;66.60;;;;;;5055756;28;20080;-84
2023/03/30 01:30:50;;;;;;;0.00;0.00;;;12.40;65.40;;;;;;5055076;28;20045;-84
2023/03/30 01:33:45;;;;;;;1.38;0.25;;;12.40;61.60;;;;;;5055123;28;20079;-84
2023/03/30 01:36:27;;;;;;;;;;;12.50;58.20;;;;;;5055770;28;20401;-84
2023/03/30 01:38:55;;;;;;;0.00;0.00;;;12.40;59.10;;;;;;5055052;28;20066;-84
2023/03/30 01:41:34;;;;;;;2.35;0.90;;;12.40;54.50;;;;;;5055943;28;20087;-84
2023/03/30 01:44:23;;;;;;;0.00;0.00;;;12.40;49.60;;;;;;5054727;28;20130;-84
2023/03/30 01:47:15;;;;;;;1.65;0.32;;;12.40;52.50;;;;;;5054939;28;20040;-84
2023/03/30 01:50:16;;;;;;;0.20;0.20;;;12.40;53.20;;;;;;5052252;28;20075;-84
2023/03/30 01:52:52;;;;;;;0.00;0.00;;;12.40;54.40;;;;;;5052098;28;20057;-84
2023/03/30 01:55:40;;;;;;;0.10;0.00;;;12.40;51.70;;;;;;5055321;28;20381;-84
2023/03/30 01:58:27;;;;;;;0.00;0.00;;;12.40;53.00;;;;;;5054313;28;20045;-84
2023/03/30 02:00:54;;;;;;;0.00;0.00;;;12.40;52.50;;;;;;5054701;28;20044;-84
2023/03/30 02:03:26;;;;;;;0.05;0.05;;;12.40;51.70;;;;;;5054186;28;20048;-84
2023/03/30 02:05:57;;;;;;;0.03;0.00;;;12.40;47.10;;;;;;5054453;28;20473;-84
2023/03/30 02:08:28;;;;;;;0.00;0.00;;;12.40;52.00;;;;;;5055223;28;20040;-84
2023/03/30 02:10:57;;;;;;;0.20;0.20;;;12.40;50.70;;;;;;5054100;28;20152;-84
2023/03/30 02:13:26;;;;;;;0.77;0.47;;;12.40;51.80;;;;;;5037356;28;20048;-84
2023/03/30 02:16:01;;;;;;;1.48;0.50;;;12.30;49.90;;;;;;5055128;28;20477;-84
2023/03/30 02:18:26;;;;;;;;;;;12.40;50.50;;;;;;5055878;28;20452;-84
2023/03/30 02:20:55;;;;;;;0.00;0.00;;;12.30;50.80;;;;;;5036862;28;20002;-84
2023/03/30 02:23:23;;;;;;;0.00;0.00;;;12.30;49.70;;;;;;5053621;28;20425;-84
2023/03/30 02:25:49;;;;;;;1.75;0.52;;;12.30;49.50;;;;;;5053837;28;20088;-84
2023/03/30 02:28:15;;;;;;;1.27;0.35;;;12.30;50.20;;;;;;5037230;28;20522;-84
2023/03/30 02:30:44;;;;;;;0.00;0.00;;;12.30;49.00;;;;;;5054635;28;20084;-84
2023/03/30 02:33:31;;;;;;;0.00;0.00;;;12.30;49.00;;;;;;5053928;28;20060;-84
2023/03/30 02:36:06;;;;;;;0.05;0.00;;;12.30;50.80;;;;;;5053930;28;20057;-84
2023/03/30 02:39:14;;;;;;;0.00;0.00;;;12.30;50.90;;;;;;5053557;28;20135;-84
2023/03/30 02:42:22;;;;;;;0.00;0.00;;;12.30;48.80;;;;;;5048079;28;20061;-84
2023/03/30 02:45:02;;;;;;;0.08;0.05;;;12.30;49.90;;;;;;5053750;28;20063;-84
2023/03/30 02:47:54;;;;;;;0.00;0.00;;;12.20;49.30;;;;;;5053371;28;20037;-84
2023/03/30 02:50:46;;;;;;;0.35;0.00;;;12.30;47.20;;;;;;5054317;28;20041;-84
2023/03/30 02:53:32;;;;;;;0.00;0.00;;;12.30;45.60;;;;;;5055270;28;20496;-84
2023/03/30 02:56:13;;;;;;;0.00;0.00;;;12.30;49.80;;;;;;5053562;28;20049;-84
2023/03/30 02:58:48;;;;;;;0.22;0.08;;;12.30;44.50;;;;;;5055017;28;20056;-84
2023/03/30 03:01:32;;;;;;;0.00;0.00;;;12.30;44.60;;;;;;5054415;28;20055;-84
2023/03/30 03:04:00;;;;;;;0.00;0.00;;;12.30;43.90;;;;;;5037380;28;20381;-84
2023/03/30 03:06:26;;;;;;;0.22;0.20;;;12.30;41.50;;;;;;5036711;28;20052;-84
2023/03/30 03:08:54;;;;;;;0.00;0.00;;;12.30;40.40;;;;;;5036619;28;20396;-84
2023/03/30 03:11:20;;;;;;;0.00;0.00;;;12.30;42.10;;;;;;5054485;28;20465;-84
2023/03/30 03:13:46;;;;;;;0.00;0.00;;;12.30;41.40;;;;;;5036391;28;20053;-83
2023/03/30 03:16:12;;;;;;;0.00;0.00;;;12.20;37.30;;;;;;5054709;28;20128;-84
2023/03/30 03:18:40;;;;;;;0.00;0.00;;;12.20;37.90;;;;;;5053681;28;20473;-84
2023/03/30 03:21:10;;;;;;;0.10;0.10;;;12.20;39.50;;;;;;5053661;28;20061;-85
2023/03/30 03:23:36;;;;;;;0.10;0.00;;;12.10;38.90;;;;;;5052626;28;20056;-85
2023/03/30 03:26:03;;;;;;;0.15;0.15;;;12.10;44.10;;;;;;5052582;28;20048;-84
2023/03/30 03:28:30;;;;;;;0.00;0.00;;;12.10;42.80;;;;;;5053979;28;20088;-85
2023/03/30 03:30:57;;;;;;;0.25;0.00;;;12.10;46.40;;;;;;5035864;28;20052;-85
2023/03/30 03:33:23;;;;;;;0.00;0.00;;;12.20;46.80;;;;;;5036922;28;20136;-84
2023/03/30 03:35:52;;;;;;;0.00;0.00;;;12.20;47.90;;;;;;5053695;28;20055;-84
2023/03/30 03:38:21;;;;;;;0.00;0.00;;;12.30;48.80;;;;;;5054272;28;20056;-84
2023/03/30 03:40:52;;;;;;;2.45;0.90;;;12.30;48.80;;;;;;5053427;28;20052;-85
2023/03/30 03:43:18;;;;;;;0.00;0.00;;;12.30;47.80;;;;;;5052620;28;20096;-84
2023/03/30 03:45:49;;;;;;;0.38;0.00;;;12.30;47.80;;;;;;5052807;28;20057;-84
2023/03/30 03:48:16;;;;;;;0.00;0.00;;;12.30;49.10;;;;;;5052433;28;20056;-84
2023/03/30 03:50:43;;;;;;;0.00;0.00;;;12.30;47.30;;;;;;5053685;28;20495;-83
2023/03/30 03:53:10;;;;;;;0.00;0.00;;;12.40;47.40;;;;;;5035986;28;20088;-84
2023/03/30 03:55:39;;;;;;;0.00;0.00;;;12.40;44.70;;;;;;5053224;28;20045;-84
2023/03/30 03:58:06;;;;;;;0.00;0.00;;;12.30;44.20;;;;;;5052282;28;20088;-85
2023/03/30 04:00:32;;;;;;;0.00;0.00;;;12.40;42.70;;;;;;5053359;28;20489;-84
2023/03/30 04:02:58;;;;;;;0.00;0.00;;;12.30;41.90;;;;;;5056521;28;20053;-85
2023/03/30 04:05:25;;;;;;;0.10;0.10;;;12.40;38.40;;;;;;5039791;28;20079;-84
2023/03/30 04:07:52;;;;;;;0.60;0.40;;;12.40;39.10;;;;;;5057323;28;20350;-85
2023/03/30 04:10:19;;;;;;;0.00;0.00;;;12.40;37.30;;;;;;5056220;28;20127;-85
2023/03/30 04:12:45;;;;;;;0.13;0.13;;;12.40;37.70;;;;;;5056149;28;20045;-84
2023/03/30 04:15:11;;;;;;;0.00;0.00;;;12.40;38.60;;;;;;5056822;28;20056;-85
2023/03/30 04:17:37;;;;;;;0.00;0.00;;;12.40;36.60;;;;;;5040173;28;20048;-85
2023/03/30 04:20:04;;;;;;;0.00;0.00;;;12.40;32.80;;;;;;5056793;28;20045;-84
2023/03/30 04:22:40;;;;;;;0.00;0.00;;;12.40;32.60;;;;;;5056407;28;20049;-84
2023/03/30 04:25:13;;;;;;;0.00;0.00;;;12.40;29.20;;;;;;5039914;28;20056;-84
2023/03/30 04:27:43;;;;;;;0.00;0.00;;;12.30;34.80;;;;;;5057225;28;20049;-84
2023/03/30 04:30:10;;;;;;;0.32;0.32;;;12.30;39.80;;;;;;5056383;28;20133;-85
2023/03/30 04:32:40;;;;;;;0.00;0.00;;;12.30;39.40;;;;;;5056388;28;20060;-84
2023/03/30 04:35:07;;;;;;;0.00;0.00;;;12.30;40.20;;;;;;5040161;28;20041;-85
2023/03/30 04:37:34;;;;;;;0.30;0.10;;;12.30;33.90;;;;;;5056256;28;20091;-85
2023/03/30 04:40:05;;;;;;;0.00;0.00;;;12.20;35.70;;;;;;5056110;28;20071;-85
2023/03/30 04:42:33;;;;;;;0.22;0.22;;;12.20;37.20;;;;;;5057062;28;20179;-84
2023/03/30 04:45:06;;;;;;;0.00;0.00;;;12.20;40.10;;;;;;5055865;28;20089;-85
2023/03/30 04:47:33;;;;;;;0.10;0.10;;;12.20;39.30;;;;;;5056140;28;20063;-84
2023/03/30 04:50:00;;;;;;;0.30;0.00;;;12.20;43.40;;;;;;5055573;28;20040;-84
2023/03/30 04:52:25;;;;;;;0.00;0.00;;;12.20;43.00;;;;;;5056591;28;20056;-84
2023/03/30 04:54:51;;;;;;;0.75;0.30;;;12.20;44.50;;;;;;5055591;28;20127;-84
2023/03/30 04:57:17;;;;;;;0.00;0.00;;;12.20;42.40;;;;;;5039342;28;20048;-85
2023/03/30 04:59:43;;;;;;;0.43;0.10;;;12.20;44.40;;;;;;5038993;28;20049;-85
2023/03/30 05:02:11;;;;;;;0.20;0.20;;;12.10;45.20;;;;;;5055817;28;20044;-85
2023/03/30 05:04:37;;;;;;;0.00;0.00;;;12.10;44.60;;;;;;5038907;28;20045;-85
2023/03/30 05:07:05;;;;;;;0.00;0.00;;;12.20;44.80;;;;;;5055205;28;20136;-85
2023/03/30 05:09:31;;;;;;;2.47;0.38;;;12.10;45.20;;;;;;5054923;28;20052;-84
2023/03/30 05:11:57;;;;;;;6.63;0.88;;;12.20;48.90;;;;;;5055491;28;20055;-84
2023/03/30 05:14:23;;;;;;;0.00;0.00;;;12.20;52.40;;;;;;5057038;28;20044;-85
2023/03/30 05:16:48;;;;;;;0.00;0.00;;;12.10;55.60;;;;;;5055145;28;20603;-85
2023/03/30 05:19:14;;;;;;;0.00;0.00;;;12.20;55.20;;;;;;5055143;28;20092;-84
2023/03/30 05:21:40;;;;;;;0.50;0.00;;;12.10;58.30;;;;;;5055024;28;20140;-85
2023/03/30 05:24:06;;;;;;;0.00;0.00;;;12.10;58.00;;;;;;5055942;28;20091;-84
2023/03/30 05:26:32;;;;;;;0.00;0.00;;;12.10;55.30;;;;;;5055998;28;20045;-85
2023/03/30 05:28:58;;;;;;;0.00;0.00;;;12.10;56.30;;;;;;5055068;28;20051;-84
2023/03/30 05:31:24;;;;;;;0.00;0.00;;;12.20;55.60;;;;;;5055914;28;20052;-85
2023/03/30 05:33:51;;;;;;;0.00;0.00;;;12.20;54.70;;;;;;5037965;28;20164;-84
2023/03/30 05:36:17;;;;;;;0.08;0.00;;;12.20;57.60;;;;;;5054958;28;20064;-84
2023/03/30 05:38:43;;;;;;;0.00;0.00;;;12.20;56.30;;;;;;5055841;28;20044;-85
2023/03/30 05:41:10;;;;;;;0.00;0.00;;;12.20;54.60;;;;;;5054468;28;20033;-84
2023/03/30 05:43:35;;;;;;;0.00;0.00;;;12.20;56.50;;;;;;5054731;28;20049;-83
2023/03/30 05:46:02;;;;;;;0.00;0.00;;;12.20;55.70;;;;;;5021555;28;20467;-84
2023/03/30 05:48:29;;;;;;;0.00;0.00;;;12.20;57.30;;;;;;5054481;28;20063;-84
2023/03/30 05:50:55;;;;;;;0.00;0.00;;;12.20;59.10;;;;;;5054394;28;20041;-83
2023/03/30 05:53:21;;;;;;;0.00;0.00;;;12.30;56.40;;;;;;5055088;28;20045;-84
2023/03/30 05:55:48;;;;;;;0.43;0.20;;;12.30;57.30;;;;;;5054559;28;20049;-83
2023/03/30 05:58:18;;;;;;;0.00;0.00;;;12.30;59.10;;;;;;5037800;28;20052;-84
2023/03/30 06:00:47;;;;;;;0.20;0.20;;;12.40;62.40;;;;;;5054353;28;20502;-84
2023/03/30 06:03:13;;;;;;;0.00;0.00;;;12.40;62.50;;;;;;5037842;28;20183;-84
2023/03/30 06:05:40;;;;;;;0.00;0.00;;;12.50;62.20;;;;;;5037975;28;20049;-84
2023/03/30 06:08:07;;;;;;;0.15;0.13;;;12.50;63.60;;;;;;5054025;28;20049;-84
2023/03/30 06:10:33;;;;;;;0.13;0.13;;;12.50;62.80;;;;;;5020807;28;20128;-84
2023/03/30 06:13:00;;;;;;;0.98;0.43;;;12.60;62.10;;;;;;5053744;28;20398;-84
2023/03/30 06:15:26;;;;;;;0.00;0.00;;;12.70;64.20;;;;;;5052909;28;20045;-84
2023/03/30 06:17:51;;;;;;;0.00;0.00;;;12.80;65.00;;;;;;5036615;28;20043;-84
2023/03/30 06:20:20;;;;;;;0.47;0.17;;;12.90;68.70;;;;;;5054346;28;20049;-84
2023/03/30 06:22:50;;;;;;;0.00;0.00;;;13.00;68.40;;;;;;5036032;28;20057;-85
2023/03/30 06:25:18;;;;;;;0.10;0.10;;;13.20;67.70;;;;;;5053506;28;20088;-84
2023/03/30 06:27:44;;;;;;;1.85;0.68;;;13.30;62.30;;;;;;5053838;28;20055;-84
2023/03/30 06:30:11;;;;;;;0.00;0.00;;;13.30;58.20;;;;;;5054641;28;20132;-85
2023/03/30 06:32:37;;;;;;;0.00;0.00;;;13.40;55.30;;;;;;5037426;28;20049;-83
2023/03/30 06:35:03;;;;;;;0.00;0.00;;;13.40;51.00;;;;;;5053538;28;20052;-88
2023/03/30 06:37:35;;;;;;;0.00;0.00;;;13.40;55.10;;;;;;5054268;28;20052;-82
2023/03/30 06:40:06;;;;;;;0.45;0.10;;;13.30;53.60;;;;;;5020689;28;20399;-83
2023/03/30 06:42:32;;;;;;;0.00;0.00;;;13.30;53.60;;;;;;5053708;28;20045;-82
2023/03/30 06:44:58;;;;;;;0.00;0.00;;;13.30;54.00;;;;;;5054598;28;20053;-81
2023/03/30 06:47:23;;;;;;;0.00;0.00;;;13.30;50.40;;;;;;5053263;28;20382;-81
2023/03/30 06:49:49;;;;;;;0.00;0.00;;;13.20;52.60;;;;;;5053949;28;20457;-82
2023/03/30 06:52:16;;;;;;;0.00;0.00;;;13.20;55.40;;;;;;5054341;28;20053;-84
2023/03/30 06:54:42;;;;;;;1.17;0.40;;;13.20;57.30;;;;;;5054211;28;20223;-81
2023/03/30 06:57:08;;;;;;;0.00;0.00;;;13.20;54.70;;;;;;5053408;28;20059;-85
2023/03/30 06:59:33;;;;;;;0.00;0.00;;;13.20;56.90;;;;;;5036895;28;20053;-85
2023/03/30 07:01:59;;;;;;;0.00;0.00;;;13.20;53.90;;;;;;5054127;28;20077;-84
2023/03/30 07:04:25;;;;;;;0.00;0.00;;;13.20;54.30;;;;;;5054097;28;20048;-84
2023/03/30 07:06:51;;;;;;;0.17;0.17;;;13.30;56.20;;;;;;5037491;28;20045;-85
2023/03/30 07:09:17;;;;;;;0.22;0.22;;;13.40;57.20;;;;;;5036683;28;20135;-84
2023/03/30 07:11:43;;;;;;;0.00;0.00;;;13.40;54.00;;;;;;5052768;28;20095;-84
2023/03/30 07:14:11;;;;;;;0.20;0.00;;;13.80;60.00;;;;;;5054014;28;20049;-84
2023/03/30 07:16:37;;;;;;;0.00;0.00;;;14.40;38.90;;;;;;5053437;28;20060;-84
2023/03/30 07:19:04;;;;;;;2.30;0.47;;;14.50;5.50;;;;;;5053416;28;20373;-84
2023/03/30 07:21:31;;;;;;;0.05;0.00;;;14.40;1.00;;;;;;5054694;28;20099;-85
2023/03/30 07:23:59;;;;;;;0.93;0.22;;;14.30;1.00;;;;;;5052644;28;20056;-85
2023/03/30 07:26:26;;;;;;;0.00;0.00;;;14.10;1.00;;;;;;5036585;28;20037;-83
2023/03/30 07:28:52;;;;;;;0.17;0.17;;;14.00;1.00;;;;;;5053099;28;20049;-82
2023/03/30 07:31:20;;;;;;;0.35;0.10;;;13.80;1.00;;;;;;5053698;28;20045;-82
2023/03/30 07:33:46;;;;;;;0.68;0.00;;;13.70;1.60;;;;;;5036176;28;20048;-84
2023/03/30 07:36:12;;;;;;;0.40;0.40;;;13.60;6.20;;;;;;5052510;28;20099;-83
2023/03/30 07:38:38;;;;;;;0.32;0.32;;;13.50;10.00;;;;;;5053714;28;20052;-83
2023/03/30 07:41:08;;;;;;;0.00;0.00;;;13.40;10.90;;;;;;5053075;28;20555;-85
2023/03/30 07:43:34;;;;;;;0.00;0.00;;;13.40;20.30;;;;;;5054405;28;20053;-84
2023/03/30 07:46:00;;;;;;;0.10;0.10;;;13.30;24.70;;;;;;5052525;28;20053;-85
2023/03/30 07:48:25;;;;;;;0.00;0.00;;;13.30;13.70;;;;;;5052218;28;20041;-84
2023/03/30 07:51:02;;;;;;;0.20;0.20;;;13.30;20.70;;;;;;5053532;28;20048;-84
2023/03/30 07:53:32;;;;;;;0.00;0.00;;;13.20;22.60;;;;;;5052918;28;20048;-84
2023/03/30 07:55:58;;;;;;;0.10;0.05;;;13.20;23.90;;;;;;5052933;28;20052;-84
2023/03/30 07:58:25;;;;;;;0.38;0.13;;;13.20;24.20;;;;;;5053526;28;20048;-84
2023/03/30 08:00:52;;;;;;;0.57;0.57;;;13.20;21.90;;;;;;5053450;28;20081;-84
2023/03/30 08:03:20;;;;;;;0.00;0.00;;;13.20;26.10;;;;;;5053834;28;20409;-84
2023/03/30 08:05:59;;;;;;;0.52;0.00;;;13.20;24.50;;;;;;5036913;28;20045;-84
2023/03/30 08:08:26;;;;;;;0.00;0.00;;;13.20;19.40;;;;;;5035517;28;20056;-84
2023/03/30 08:10:52;;;;;;;0.00;0.00;;;13.10;24.60;;;;;;5035728;28;20048;-84
2023/03/30 08:13:18;;;;;;;0.00;0.00;;;13.00;24.90;;;;;;5052017;28;20048;-84
2023/03/30 08:15:45;;;;;;;0.00;0.00;;;13.00;28.20;;;;;;5036366;28;20195;-83
2023/03/30 08:18:11;;;;;;;0.63;0.63;;;13.00;29.00;;;;;;5053093;28;20481;-85
2023/03/30 08:20:39;;;;;;;0.03;0.03;;;13.00;22.90;;;;;;5035440;28;20057;-84
2023/03/30 08:23:05;;;;;;;1.15;0.52;;;13.00;19.30;;;;;;5035827;28;20053;-82
2023/03/30 08:25:31;;;;;;;0.00;0.00;;;13.00;25.20;;;;;;5053310;28;20045;-84
2023/03/30 08:27:57;;;;;;;2.72;0.45;;;13.00;21.50;;;;;;5053279;28;20067;-84
2023/03/30 08:30:23;;;;;;;0.10;0.10;;;13.00;17.60;;;;;;5035546;28;20041;-84
2023/03/30 08:32:50;;;;;;;3.25;0.43;;;13.00;22.30;;;;;;5053281;28;20127;-84
2023/03/30 08:35:16;;;;;;;1.88;0.98;;;13.00;20.90;;;;;;5052461;28;20499;-85
2023/03/30 08:37:42;;;;;;;1.60;0.90;;;13.10;18.80;;;;;;5052559;28;20103;-84
2023/03/30 08:40:11;;;;;;;6.60;0.30;;;13.10;33.90;;;;;;5036103;28;20041;-84
2023/03/30 08:43:15;;;;;;;0.00;0.00;;;13.10;38.20;;;;;;5052235;28;20103;-84
2023/03/30 08:45:42;;;;;;;2.30;1.25;;;13.10;31.60;;;;;;5053294;28;20053;-85
2023/03/30 08:48:15;;;;;;;0.40;0.40;;;13.00;53.80;;;;;;5039322;28;20045;-84
2023/03/30 08:50:45;;;;;;;0.00;0.00;;;12.80;73.90;;;;;;5056827;28;20041;-84
2023/03/30 08:53:11;;;;;;;0.10;0.10;;;12.70;74.50;;;;;;5055511;28;20085;-84
2023/03/30 08:55:55;;;;;;;0.10;0.10;;;12.70;81.40;;;;;;5056357;28;20460;-84
2023/03/30 08:58:55;;;;;;;3.38;1.60;;;12.70;88.10;;;;;;5057255;28;20055;-84
2023/03/30 09:01:53;;;;;;;0.32;0.32;;;12.70;89.40;;;;;;5055805;28;20059;-84
2023/03/30 09:04:37;;;;;;;0.32;0.32;;;12.80;87.70;;;;;;5053435;28;20488;-84
2023/03/30 09:07:19;;;;;;;0.10;0.10;;;12.80;76.80;;;;;;5056652;28;20048;-84
2023/03/30 09:09:47;;;;;;;0.00;0.00;;;12.80;77.10;;;;;;5056612;28;20128;-84
2023/03/30 09:12:37;;;;;;;0.00;0.00;;;12.90;73.60;;;;;;5056104;28;20068;-84
2023/03/30 09:15:32;;;;;;;0.00;0.00;;;13.10;72.40;;;;;;5038919;28;20049;-84
2023/03/30 09:18:23;;;;;;;4.55;0.25;;;13.30;47.70;;;;;;5055749;28;20477;-84
2023/03/30 09:20:52;;;;;;;0.80;0.80;;;13.50;39.30;;;;;;5038520;28;20111;-84
2023/03/30 09:23:18;;;;;;;0.10;0.10;;;13.60;28.00;;;;;;5055438;28;20052;-84
2023/03/30 09:25:57;;;;;;;0.30;0.30;;;13.70;24.90;;;;;;5055175;28;20045;-82
2023/03/30 09:28:42;;;;;;;0.10;0.10;;;13.90;6.10;;;;;;5055122;28;20099;-83
2023/03/30 09:31:16;;;;;;;0.20;0.20;;;14.10;4.70;;;;;;5056330;28;20037;-83
2023/03/30 09:34:13;;;;;;;2.72;1.27;;;14.30;1.00;;;;;;5056715;28;20052;-83
2023/03/30 09:36:49;;;;;;;1.42;0.13;;;14.40;1.00;;;;;;5051398;28;20381;-83
2023/03/30 09:39:20;;;;;;;0.45;0.30;;;14.50;1.00;;;;;;5055993;28;20129;-83
2023/03/30 09:42:04;;;;;;;0.00;0.00;;;14.50;1.00;;;;;;5054932;28;20053;-83
2023/03/30 09:44:59;;;;;;;0.00;0.00;;;14.40;1.00;;;;;;5055894;28;20086;-82
2023/03/30 09:47:26;;;;;;;0.08;0.00;;;14.40;1.00;;;;;;5054876;28;20476;-83
2023/03/30 09:49:57;;;;;;;0.10;0.10;;;14.30;1.00;;;;;;5054340;28;20132;-83
2023/03/30 09:52:25;;;;;;;0.38;0.38;;;14.20;1.00;;;;;;5054506;28;20107;-83
2023/03/30 09:54:51;;;;;;;4.50;2.28;;;14.20;1.00;;;;;;5054664;28;20469;-83
2023/03/30 09:57:43;;;;;;;7.13;1.95;;;14.10;1.00;;;;;;5054793;28;20098;-84
2023/03/30 10:00:31;;;;;;;0.25;0.17;;;14.00;1.00;;;;;;5052517;28;20053;-84
2023/03/30 10:03:00;;;;;;;0.28;0.22;;;13.90;1.00;;;;;;5054803;28;20110;-84
2023/03/30 10:05:26;;;;;;;0.00;0.00;;;13.80;1.00;;;;;;5054672;28;20132;-84
2023/03/30 10:08:18;;;;;;;0.00;0.00;;;13.80;1.00;;;;;;5038240;28;20041;-84
2023/03/30 10:10:44;;;;;;;0.10;0.10;;;14.00;1.00;;;;;;5055276;28;20077;-84
2023/03/30 10:13:15;;;;;;;3.25;1.23;;;14.20;1.00;;;;;;5054374;28;20142;-84
2023/03/30 10:15:44;;;;;;;0.38;0.38;;;14.40;1.00;;;;;;5054638;28;20053;-84
2023/03/30 10:18:13;;;;;;;0.15;0.08;;;14.70;1.00;;;;;;5037883;28;20397;-83
2023/03/30 10:20:40;;;;;;;0.13;0.13;;;15.10;1.00;;;;;;5053926;28;20057;-82
2023/03/30 10:23:14;;;;;;;0.93;0.73;;;15.30;1.00;;;;;;5054958;28;20128;-83
2023/03/30 10:25:41;;;;;;;0.00;0.00;;;15.50;99.90;;;;;;5054505;28;20057;-83
2023/03/30 10:28:24;;;;;;;0.52;0.22;;;15.60;99.90;;;;;;5037431;28;20103;-83
2023/03/30 10:31:14;;;;;;;5.10;0.85;;;15.90;99.90;;;;;;5054950;28;20095;-84
2023/03/30 10:33:42;;;;;;;0.20;0.20;;;15.80;99.90;;;;;;5054878;28;20052;-84
2023/03/30 10:36:10;;;;;;;0.10;0.10;;;15.50;99.90;;;;;;5053799;28;20040;-84
2023/03/30 10:38:39;;;;;;;2.05;0.38;;;15.30;1.00;;;;;;5037385;28;20538;-84
2023/03/30 10:41:12;;;;;;;0.15;0.15;;;15.10;99.90;;;;;;5054703;28;20103;-84
2023/03/30 10:43:40;;;;;;;0.05;0.05;;;15.00;1.00;;;;;;5053798;28;20060;-84
2023/03/30 10:46:23;;;;;;;0.93;0.55;;;14.90;1.00;;;;;;5053558;28;20061;-84
2023/03/30 10:49:20;;;;;;;0.65;0.65;;;15.00;1.00;;;;;;5037610;28;20080;-84
2023/03/30 10:52:01;;;;;;;0.00;0.00;;;14.90;99.90;;;;;;5033076;28;20492;-84
2023/03/30 10:54:56;;;;;;;0.00;0.00;;;14.80;99.90;;;;;;5056876;28;20506;-83
2023/03/30 10:57:34;;;;;;;;;;;14.70;99.90;;;;;;5030265;28;20148;-84
2023/03/30 11:00:23;;;;;;;3.38;0.57;;;14.60;1.00;;;;;;5038309;28;20083;-84
2023/03/30 11:02:55;;;;;;;0.00;0.00;;;14.50;99.90;;;;;;5054313;28;20096;-83
2023/03/30 11:05:28;;;;;;;0.00;0.00;;;14.50;1.00;;;;;;5056027;28;20056;-84
2023/03/30 11:07:56;;;;;;;0.57;0.57;;;14.60;1.00;;;;;;5040154;28;20044;-83
2023/03/30 11:10:35;;;;;;;0.08;0.08;;;14.60;99.90;;;;;;5054087;28;20080;-82
2023/03/30 11:13:10;;;;;;;0.00;0.00;;;14.50;99.90;;;;;;5055286;28;20060;-83
2023/03/30 11:15:48;;;;;;;0.00;0.00;;;14.50;99.90;;;;;;5053455;28;20477;-83
2023/03/30 11:18:26;;;;;;;0.00;0.00;;;14.50;99.90;;;;;;5053100;28;20041;-83
2023/03/30 11:21:03;;;;;;;0.00;0.00;;;14.60;1.00;;;;;;5052853;28;20126;-83
2023/03/30 11:23:54;;;;;;;0.00;0.00;;;14.60;99.90;;;;;;5054161;28;20158;-83
2023/03/30 11:26:40;;;;;;;0.00;0.00;;;14.60;99.90;;;;;;5054262;28;20049;-83
2023/03/30 11:29:25;;;;;;;0.00;0.00;;;14.60;99.90;;;;;;5053979;28;20107;-83
2023/03/30 11:32:30;;;;;;;0.00;0.00;;;14.60;99.90;;;;;;5054012;28;20045;-83
2023/03/30 11:35:14;;;;;;;0.00;0.00;;;14.60;1.00;;;;;;5032368;28;20538;-83
2023/03/30 11:37:45;;;;;;;0.10;0.10;;;14.60;99.90;;;;;;5053003;28;20144;-83
2023/03/30 11:40:21;;;;;;;0.20;0.20;;;14.60;54.80;;;;;;5054573;28;20045;-83
2023/03/30 11:42:47;;;;;;;0.00;0.00;;;14.60;99.90;;;;;;5052949;28;20045;-84
2023/03/30 11:45:51;;;;;;;0.17;0.13;;;15.10;83.20;;;;;;5036599;28;20102;-83
2023/03/30 11:48:50;;;;;;;0.00;0.00;;;15.40;99.90;;;;;;5053916;28;20505;-84
2023/03/30 11:51:19;;;;;;;0.00;0.00;;;15.90;1.00;;;;;;5039157;28;20071;-83
2023/03/30 11:54:14;;;;;;;0.00;0.00;;;15.80;51.30;;;;;;5036941;28;20088;-83
2023/03/30 11:56:49;;;;;;;0.00;0.00;;;15.60;99.90;;;;;;5018321;28;20107;-83
2023/03/30 11:59:19;;;;;;;0.10;0.10;;;15.40;99.90;;;;;;5054306;28;20091;-83
2023/03/30 12:02:29;;;;;;;0.35;0.35;;;15.40;32.10;;;;;;5037442;28;20045;-83
2023/03/30 12:05:02;;;;;;;0.13;0.13;;;15.40;1.00;;;;;;5043632;28;20159;-83
2023/03/30 12:07:30;;;;;;;0.15;0.15;;;15.30;1.00;;;;;;5053705;28;20041;-83
2023/03/30 12:10:02;;;;;;;0.30;0.30;;;15.10;99.90;;;;;;5036632;28;20045;-83
2023/03/30 12:12:37;;;;;;;0.20;0.20;;;15.00;99.90;;;;;;5053626;28;20052;-83
2023/03/30 12:15:25;;;;;;;0.00;0.00;;;14.80;69.20;;;;;;5055129;28;20045;-83
2023/03/30 12:18:16;;;;;;;0.00;0.00;;;14.90;99.90;;;;;;5054018;28;20063;-83
2023/03/30 12:21:09;;;;;;;0.10;0.10;;;15.00;99.90;;;;;;5054064;28;20053;-83
2023/03/30 12:23:54;;;;;;;0.00;0.00;;;14.90;1.00;;;;;;5058096;28;20049;-83
2023/03/30 12:26:33;;;;;;;0.03;0.03;;;14.80;1.00;;;;;;5057796;28;20045;-83
2023/03/30 12:29:05;;;;;;;0.15;0.10;;;14.70;99.90;;;;;;5057756;28;20049;-83
2023/03/30 12:31:46;;;;;;;0.00;0.00;;;14.60;99.90;;;;;;5056880;28;20132;-82
2023/03/30 12:34:12;;;;;;;0.00;0.00;;;14.50;99.90;;;;;;5057221;28;20056;-83
2023/03/30 12:36:45;;;;;;;0.00;0.00;;;14.40;99.90;;;;;;5039767;28;20057;-83
2023/03/30 12:39:56;;;;;;;0.30;0.30;;;14.60;99.90;;;;;;5040579;28;20102;-83
2023/03/30 12:42:34;;;;;;;0.90;0.32;;;15.20;99.90;;;;;;5018828;28;20508;-85
2023/03/30 12:45:15;;;;;;;0.25;0.25;;;15.80;1.00;;;;;;5002152;28;20079;-83
2023/03/30 12:48:14;;;;;;;0.85;0.55;;;16.30;99.90;;;;;;5043382;28;20055;-84
2023/03/30 12:50:49;;;;;;;0.35;0.35;;;16.70;99.90;;;;;;5055802;28;20509;-84
2023/03/30 12:53:17;;;;;;;0.00;0.00;;;16.90;99.90;;;;;;5056803;28;20477;-84
2023/03/30 12:56:01;;;;;;;0.00;0.00;;;17.20;99.90;;;;;;5055954;28;20053;-84
2023/03/30 12:58:39;;;;;;;0.00;0.00;;;17.20;1.00;;;;;;5056008;28;20476;-83
2023/03/30 13:01:20;;;;;;;0.00;0.00;;;17.10;99.90;;;;;;5055816;28;20400;-83
2023/03/30 13:03:51;;;;;;;0.05;0.03;;;16.70;1.00;;;;;;5056296;28;20473;-83
2023/03/30 13:06:46;;;;;;;1.25;0.90;;;16.40;99.90;;;;;;5056606;28;20052;-84
2023/03/30 13:09:18;;;;;;;2.63;0.57;;;16.30;99.90;;;;;;5055945;28;20043;-84
2023/03/30 13:11:45;;;;;;;0.00;0.00;;;16.20;99.90;;;;;;5056389;28;20041;-84
2023/03/30 13:14:29;;;;;;;0.03;0.03;;;16.40;99.90;;;;;;5055344;28;20105;-83
2023/03/30 13:16:55;;;;;;;0.00;0.00;;;16.70;48.00;;;;;;5055492;28;20098;-84